createdAt,value
2023-02-01T00:00:00.222Z,5.5
2023-02-01T00:01:00.770Z,5.6
2023-02-01T00:02:00.362Z,5.7
2023-02-01T00:03:00.950Z,5.7
2023-02-01T00:04:00.683Z,5.7
2023-02-01T00:05:00.182Z,5.7
2023-02-01T00:06:00.816Z,5.7
2023-02-01T00:07:00.406Z,5.7
2023-02-01T00:08:00.987Z,5.7
2023-02-01T00:09:00.604Z,5.7
2023-02-01T00:10:00.194Z,5.7
2023-02-01T00:11:00.781Z,5.8
2023-02-01T00:12:00.386Z,5.8
2023-02-01T00:13:00.946Z,5.8
2023-02-01T00:14:00.552Z,5.8
2023-02-01T00:15:00.157Z,5.8
2023-02-01T00:16:00.837Z,5.8
2023-02-01T00:17:00.390Z,5.7
2023-02-01T00:18:00.975Z,5.8
2023-02-01T00:19:00.592Z,5.7
2023-02-01T00:20:00.219Z,5.7
2023-02-01T00:21:00.769Z,5.7
2023-02-01T00:22:00.363Z,5.7
2023-02-01T00:23:00.931Z,5.8
2023-02-01T00:24:00.524Z,5.7
2023-02-01T00:25:00.145Z,5.8
2023-02-01T00:26:00.694Z,5.7
2023-02-01T00:27:00.305Z,5.7
2023-02-01T00:28:00.862Z,5.7
2023-02-01T00:29:00.469Z,5.7
2023-02-01T00:30:00.058Z,5.7
2023-02-01T00:31:00.730Z,5.7
2023-02-01T00:32:00.380Z,5.6
2023-02-01T00:33:00.853Z,5.7
2023-02-01T00:34:00.441Z,5.7
2023-02-01T00:35:01.021Z,5.7
2023-02-01T00:36:00.625Z,5.7
2023-02-01T00:37:00.247Z,5.7
2023-02-01T00:38:00.813Z,5.7
2023-02-01T00:39:00.415Z,5.7
2023-02-01T00:40:00.989Z,5.7
2023-02-01T00:41:00.576Z,5.7
2023-02-01T00:42:00.183Z,5.8
2023-02-01T00:43:00.742Z,5.8
2023-02-01T00:44:00.418Z,5.7
2023-02-01T00:45:00.975Z,5.7
2023-02-01T00:46:00.564Z,5.7
2023-02-01T00:47:00.170Z,5.7
2023-02-01T00:48:00.766Z,5.7
2023-02-01T00:49:00.377Z,5.8
2023-02-01T00:50:00.930Z,5.8
2023-02-01T00:51:00.540Z,5.8
2023-02-01T00:52:00.131Z,5.8
2023-02-01T00:53:00.709Z,5.8
2023-02-01T00:54:00.326Z,5.8
2023-02-01T00:55:00.870Z,5.8
2023-02-01T00:56:00.459Z,5.8
2023-02-01T00:57:00.045Z,5.8
2023-02-01T00:58:00.635Z,5.9
2023-02-01T00:59:00.251Z,5.9
2023-02-01T01:00:00.826Z,5.8
2023-02-01T01:01:00.476Z,5.8
2023-02-01T01:02:01.024Z,5.8
2023-02-01T01:03:00.621Z,5.8
2023-02-01T01:04:00.260Z,5.8
2023-02-01T01:05:00.821Z,5.8
2023-02-01T01:06:00.471Z,5.9
2023-02-01T01:07:01.022Z,5.9
2023-02-01T01:08:00.611Z,5.9
2023-02-01T01:09:00.205Z,6
2023-02-01T01:10:00.789Z,6
2023-02-01T01:11:00.371Z,5.9
2023-02-01T01:12:00.973Z,5.9
2023-02-01T01:13:00.559Z,5.9
2023-02-01T01:14:00.142Z,5.8
2023-02-01T01:15:00.748Z,5.8
2023-02-01T01:16:00.417Z,5.7
2023-02-01T01:17:00.957Z,5.8
2023-02-01T01:18:00.543Z,5.8
2023-02-01T01:19:00.173Z,5.8
2023-02-01T01:20:00.742Z,5.8
2023-02-01T01:21:00.329Z,5.7
2023-02-01T01:22:00.934Z,5.7
2023-02-01T01:23:00.525Z,5.8
2023-02-01T01:24:00.116Z,5.8
2023-02-01T01:25:00.710Z,5.7
2023-02-01T01:26:00.303Z,5.8
2023-02-01T01:27:00.896Z,5.7
2023-02-01T01:28:00.486Z,5.8
2023-02-01T01:29:00.181Z,5.8
2023-02-01T01:30:00.660Z,5.8
2023-02-01T01:31:00.407Z,5.8
2023-02-01T01:32:00.849Z,5.8
2023-02-01T01:33:00.459Z,5.7
2023-02-01T01:34:00.081Z,5.7
2023-02-01T01:35:00.613Z,5.7
2023-02-01T01:36:00.229Z,5.7
2023-02-01T01:37:00.783Z,5.7
2023-02-01T01:38:00.374Z,5.6
2023-02-01T01:39:00.969Z,5.7
2023-02-01T01:40:00.559Z,5.6
2023-02-01T01:41:00.148Z,5.6
2023-02-01T01:42:00.722Z,5.6
2023-02-01T01:43:00.314Z,5.7
2023-02-01T01:44:00.909Z,5.7
2023-02-01T01:45:00.508Z,5.7
2023-02-01T01:46:00.101Z,5.8
2023-02-01T01:47:00.719Z,5.8
2023-02-01T01:48:00.312Z,5.7
2023-02-01T01:49:00.921Z,5.7
2023-02-01T01:50:00.511Z,5.7
2023-02-01T01:51:00.104Z,5.8
2023-02-01T01:52:00.708Z,5.8
2023-02-01T01:53:00.306Z,5.9
2023-02-01T01:54:00.907Z,5.8
2023-02-01T01:55:00.494Z,5.9
2023-02-01T01:56:00.107Z,5.9
2023-02-01T01:57:00.657Z,5.9
2023-02-01T01:58:00.250Z,5.9
2023-02-01T01:59:00.853Z,5.9
2023-02-01T02:00:00.443Z,5.8
2023-02-01T02:01:00.127Z,5.8
2023-02-01T02:02:00.640Z,5.8
2023-02-01T02:03:00.250Z,5.8
2023-02-01T02:04:00.836Z,5.8
2023-02-01T02:05:00.427Z,5.8
2023-02-01T02:06:00.994Z,5.8
2023-02-01T02:07:00.659Z,5.8
2023-02-01T02:08:00.255Z,5.8
2023-02-01T02:09:00.822Z,5.8
2023-02-01T02:10:01.484Z,5.8
2023-02-01T02:11:00.188Z,5.9
2023-02-01T02:12:00.599Z,5.9
2023-02-01T02:13:00.206Z,5.8
2023-02-01T02:14:00.792Z,5.8
2023-02-01T02:15:00.391Z,5.9
2023-02-01T02:16:00.989Z,5.9
2023-02-01T02:17:00.628Z,5.9
2023-02-01T02:18:00.205Z,5.9
2023-02-01T02:19:00.763Z,5.9
2023-02-01T02:20:00.353Z,5.9
2023-02-01T02:21:00.953Z,5.9
2023-02-01T02:22:00.540Z,5.9
2023-02-01T02:23:00.127Z,5.9
2023-02-01T02:24:00.746Z,5.9
2023-02-01T02:25:00.334Z,5.8
2023-02-01T02:26:00.935Z,5.8
2023-02-01T02:27:00.525Z,5.8
2023-02-01T02:28:00.111Z,5.8
2023-02-01T02:29:00.669Z,5.9
2023-02-01T02:30:00.255Z,5.9
2023-02-01T02:31:01.031Z,5.8
2023-02-01T02:32:00.492Z,5.8
2023-02-01T02:33:00.094Z,5.8
2023-02-01T02:34:00.641Z,5.8
2023-02-01T02:35:00.263Z,5.8
2023-02-01T02:36:00.819Z,5.8
2023-02-01T02:37:00.410Z,5.8
2023-02-01T02:38:01.005Z,5.8
2023-02-01T02:39:00.597Z,5.8
2023-02-01T02:40:00.229Z,5.8
2023-02-01T02:41:00.776Z,5.8
2023-02-01T02:42:00.389Z,5.8
2023-02-01T02:43:00.938Z,5.8
2023-02-01T02:44:00.539Z,5.9
2023-02-01T02:45:00.152Z,5.9
2023-02-01T02:46:00.769Z,5.9
2023-02-01T02:47:00.391Z,5.9
2023-02-01T02:48:00.954Z,5.9
2023-02-01T02:49:00.539Z,5.9
2023-02-01T02:50:00.164Z,5.8
2023-02-01T02:51:00.701Z,5.8
2023-02-01T02:52:00.326Z,5.8
2023-02-01T02:53:00.878Z,5.7
2023-02-01T02:54:00.465Z,5.7
2023-02-01T02:55:00.049Z,5.7
2023-02-01T02:56:00.646Z,5.7
2023-02-01T02:57:00.254Z,5.7
2023-02-01T02:58:00.806Z,5.6
2023-02-01T02:59:00.393Z,5.7
2023-02-01T03:00:00.967Z,5.7
2023-02-01T03:01:00.557Z,5.7
2023-02-01T03:02:00.187Z,5.7
2023-02-01T03:03:00.772Z,5.8
2023-02-01T03:04:00.385Z,5.7
2023-02-01T03:05:00.959Z,5.7
2023-02-01T03:06:00.556Z,5.8
2023-02-01T03:07:00.214Z,5.7
2023-02-01T03:08:00.728Z,5.7
2023-02-01T03:09:00.327Z,5.7
2023-02-01T03:10:00.889Z,5.7
2023-02-01T03:11:00.485Z,5.6
2023-02-01T03:12:00.125Z,5.6
2023-02-01T03:13:00.630Z,5.6
2023-02-01T03:14:00.233Z,5.7
2023-02-01T03:15:00.822Z,5.7
2023-02-01T03:16:00.418Z,5.7
2023-02-01T03:17:01.008Z,5.8
2023-02-01T03:18:00.611Z,5.7
2023-02-01T03:19:00.199Z,5.7
2023-02-01T03:20:00.818Z,5.8
2023-02-01T03:21:00.407Z,5.8
2023-02-01T03:22:00.992Z,5.7
2023-02-01T03:23:00.584Z,5.7
2023-02-01T03:24:00.172Z,5.7
2023-02-01T03:25:00.793Z,5.7
2023-02-01T03:26:00.380Z,5.7
2023-02-01T03:27:00.970Z,5.7
2023-02-01T03:28:00.585Z,5.7
2023-02-01T03:29:00.171Z,5.7
2023-02-01T03:30:00.781Z,5.6
2023-02-01T03:31:00.385Z,5.6
2023-02-01T03:32:00.983Z,5.6
2023-02-01T03:33:00.625Z,5.6
2023-02-01T03:34:00.178Z,5.6
2023-02-01T03:35:00.773Z,5.6
2023-02-01T03:36:00.379Z,5.6
2023-02-01T03:37:00.941Z,5.6
2023-02-01T03:38:00.535Z,5.6
2023-02-01T03:39:00.147Z,5.6
2023-02-01T03:40:00.720Z,5.6
2023-02-01T03:41:00.334Z,5.6
2023-02-01T03:42:00.900Z,5.5
2023-02-01T03:43:00.489Z,5.6
2023-02-01T03:44:00.110Z,5.5
2023-02-01T03:45:00.635Z,5.5
2023-02-01T03:46:00.279Z,5.5
2023-02-01T03:47:00.851Z,5.5
2023-02-01T03:48:00.447Z,5.6
2023-02-01T03:49:00.034Z,5.5
2023-02-01T03:50:00.625Z,5.5
2023-02-01T03:51:00.242Z,5.5
2023-02-01T03:52:00.856Z,5.6
2023-02-01T03:53:00.437Z,5.5
2023-02-01T03:54:01.009Z,5.5
2023-02-01T03:55:00.607Z,5.5
2023-02-01T03:56:00.218Z,5.5
2023-02-01T03:57:00.790Z,5.5
2023-02-01T03:58:00.383Z,5.4
2023-02-01T03:59:00.986Z,5.5
2023-02-01T04:00:00.600Z,5.5
2023-02-01T04:01:00.270Z,5.5
2023-02-01T04:02:00.830Z,5.5
2023-02-01T04:03:00.458Z,5.6
2023-02-01T04:04:00.045Z,5.5
2023-02-01T04:05:00.618Z,5.6
2023-02-01T04:06:00.216Z,5.6
2023-02-01T04:07:00.791Z,5.6
2023-02-01T04:08:00.467Z,5.6
2023-02-01T04:09:00.970Z,5.6
2023-02-01T04:10:00.583Z,5.6
2023-02-01T04:11:00.204Z,5.6
2023-02-01T04:12:00.793Z,5.6
2023-02-01T04:13:00.388Z,5.6
2023-02-01T04:14:00.964Z,5.6
2023-02-01T04:15:00.585Z,5.7
2023-02-01T04:16:00.201Z,5.7
2023-02-01T04:17:00.762Z,5.7
2023-02-01T04:18:00.351Z,5.7
2023-02-01T04:19:00.925Z,5.7
2023-02-01T04:20:00.548Z,5.7
2023-02-01T04:21:00.104Z,5.7
2023-02-01T04:22:00.688Z,5.7
2023-02-01T04:23:00.273Z,5.7
2023-02-01T04:24:00.865Z,5.7
2023-02-01T04:25:00.481Z,5.7
2023-02-01T04:26:00.030Z,5.8
2023-02-01T04:27:00.601Z,5.7
2023-02-01T04:28:00.197Z,5.8
2023-02-01T04:29:00.774Z,5.7
2023-02-01T04:30:00.390Z,5.7
2023-02-01T04:31:01.080Z,5.7
2023-02-01T04:32:00.725Z,5.7
2023-02-01T04:33:00.176Z,5.8
2023-02-01T04:34:00.752Z,5.8
2023-02-01T04:35:00.361Z,5.7
2023-02-01T04:36:00.965Z,5.8
2023-02-01T04:37:00.556Z,5.8
2023-02-01T04:38:00.138Z,5.8
2023-02-01T04:39:00.724Z,5.8
2023-02-01T04:40:00.309Z,5.7
2023-02-01T04:41:00.923Z,5.8
2023-02-01T04:42:00.513Z,5.7
2023-02-01T04:43:00.088Z,5.8
2023-02-01T04:44:00.661Z,5.7
2023-02-01T04:45:00.250Z,5.8
2023-02-01T04:46:00.863Z,5.8
2023-02-01T04:47:00.488Z,5.8
2023-02-01T04:48:00.205Z,5.7
2023-02-01T04:49:00.620Z,5.7
2023-02-01T04:50:00.216Z,5.8
2023-02-01T04:51:00.824Z,5.8
2023-02-01T04:52:00.436Z,5.8
2023-02-01T04:53:01.007Z,5.8
2023-02-01T04:54:00.595Z,5.9
2023-02-01T04:55:00.187Z,5.8
2023-02-01T04:56:00.777Z,5.8
2023-02-01T04:57:00.395Z,5.8
2023-02-01T04:58:00.997Z,5.8
2023-02-01T04:59:00.584Z,5.8
2023-02-01T05:00:00.209Z,5.8
2023-02-01T05:01:00.789Z,5.8
2023-02-01T05:02:00.418Z,5.8
2023-02-01T05:03:00.958Z,5.8
2023-02-01T05:04:00.581Z,5.8
2023-02-01T05:05:00.234Z,5.8
2023-02-01T05:06:00.744Z,5.8
2023-02-01T05:07:00.353Z,5.8
2023-02-01T05:08:00.906Z,5.8
2023-02-01T05:09:00.553Z,5.8
2023-02-01T05:10:00.112Z,5.8
2023-02-01T05:11:00.665Z,5.8
2023-02-01T05:12:00.273Z,5.8
2023-02-01T05:13:00.828Z,5.8
2023-02-01T05:14:02.326Z,5.8
2023-02-01T05:15:00.959Z,5.8
2023-02-01T05:16:00.653Z,5.8
2023-02-01T05:17:00.253Z,5.8
2023-02-01T05:18:00.855Z,5.8
2023-02-01T05:19:00.443Z,5.8
2023-02-01T05:20:00.069Z,5.8
2023-02-01T05:21:00.599Z,5.8
2023-02-01T05:22:00.202Z,5.8
2023-02-01T05:23:00.782Z,5.8
2023-02-01T05:24:00.373Z,5.8
2023-02-01T05:25:00.952Z,5.8
2023-02-01T05:26:00.541Z,5.8
2023-02-01T05:27:00.129Z,5.8
2023-02-01T05:28:00.730Z,5.8
2023-02-01T05:29:00.325Z,5.8
2023-02-01T05:30:00.900Z,5.8
2023-02-01T05:31:00.621Z,5.8
2023-02-01T05:32:05.294Z,5.7
2023-02-01T05:33:00.639Z,5.8
2023-02-01T05:34:00.233Z,5.8
2023-02-01T05:35:00.820Z,5.8
2023-02-01T05:36:00.473Z,5.8
2023-02-01T05:37:01.005Z,5.7
2023-02-01T05:38:00.609Z,5.7
2023-02-01T05:39:00.223Z,5.8
2023-02-01T05:40:00.795Z,5.7
2023-02-01T05:41:00.410Z,5.7
2023-02-01T05:42:00.983Z,5.7
2023-02-01T05:43:00.569Z,5.6
2023-02-01T05:44:00.179Z,5.7
2023-02-01T05:45:00.774Z,5.7
2023-02-01T05:46:00.396Z,5.7
2023-02-01T05:47:00.970Z,5.7
2023-02-01T05:48:00.565Z,5.8
2023-02-01T05:49:00.191Z,5.7
2023-02-01T05:50:00.743Z,5.6
2023-02-01T05:51:00.326Z,5.6
2023-02-01T05:52:00.941Z,5.7
2023-02-01T05:53:00.548Z,5.6
2023-02-01T05:54:00.123Z,5.6
2023-02-01T05:55:00.714Z,5.6
2023-02-01T05:56:00.340Z,5.6
2023-02-01T05:57:00.926Z,5.6
2023-02-01T05:58:00.535Z,5.6
2023-02-01T06:00:01.009Z,5.6
2023-02-01T06:01:00.347Z,5.6
2023-02-01T06:02:00.932Z,5.5
2023-02-01T06:03:00.566Z,5.5
2023-02-01T06:04:00.244Z,5.6
2023-02-01T06:05:00.780Z,5.5
2023-02-01T06:06:00.373Z,5.6
2023-02-01T06:07:00.968Z,5.6
2023-02-01T06:08:00.589Z,5.6
2023-02-01T06:09:00.231Z,5.6
2023-02-01T06:10:00.778Z,5.6
2023-02-01T06:11:00.378Z,5.6
2023-02-01T06:12:00.974Z,5.7
2023-02-01T06:13:00.569Z,5.6
2023-02-01T06:14:00.162Z,5.6
2023-02-01T06:15:00.757Z,5.6
2023-02-01T06:16:00.362Z,5.6
2023-02-01T06:17:00.932Z,5.6
2023-02-01T06:18:00.522Z,5.6
2023-02-01T06:19:00.112Z,5.6
2023-02-01T06:20:00.707Z,5.6
2023-02-01T06:21:00.304Z,5.6
2023-02-01T06:22:00.882Z,5.6
2023-02-01T06:23:00.474Z,5.6
2023-02-01T06:24:00.113Z,5.6
2023-02-01T06:25:00.677Z,5.7
2023-02-01T06:26:00.279Z,5.6
2023-02-01T06:27:00.857Z,5.6
2023-02-01T06:28:00.473Z,5.6
2023-02-01T06:29:00.021Z,5.6
2023-02-01T06:30:00.605Z,5.7
2023-02-01T06:31:00.273Z,5.7
2023-02-01T06:32:00.841Z,5.6
2023-02-01T06:33:00.438Z,5.6
2023-02-01T06:34:01.000Z,5.7
2023-02-01T06:35:00.589Z,5.6
2023-02-01T06:36:00.173Z,5.6
2023-02-01T06:37:00.769Z,5.7
2023-02-01T06:38:00.356Z,5.7
2023-02-01T06:39:00.951Z,5.7
2023-02-01T06:40:00.577Z,5.7
2023-02-01T06:41:00.161Z,5.7
2023-02-01T06:42:00.758Z,5.6
2023-02-01T06:43:00.343Z,5.7
2023-02-01T06:44:00.917Z,5.7
2023-02-01T06:45:00.506Z,5.8
2023-02-01T06:46:00.133Z,5.7
2023-02-01T06:47:00.766Z,5.7
2023-02-01T06:48:00.322Z,5.8
2023-02-01T06:49:00.896Z,5.8
2023-02-01T06:50:00.484Z,5.8
2023-02-01T06:51:00.119Z,5.8
2023-02-01T06:52:00.665Z,5.7
2023-02-01T06:53:00.251Z,5.8
2023-02-01T06:54:00.822Z,5.8
2023-02-01T06:55:00.432Z,5.7
2023-02-01T06:56:01.022Z,5.7
2023-02-01T06:57:00.629Z,5.8
2023-02-01T06:58:00.241Z,5.7
2023-02-01T06:59:00.810Z,5.8
2023-02-01T07:00:00.399Z,5.7
2023-02-01T07:01:01.063Z,5.8
2023-02-01T07:02:00.811Z,5.8
2023-02-01T07:03:00.214Z,5.8
2023-02-01T07:04:00.775Z,5.7
2023-02-01T07:05:00.365Z,5.7
2023-02-01T07:06:00.954Z,5.7
2023-02-01T07:07:00.566Z,5.8
2023-02-01T07:08:00.215Z,5.8
2023-02-01T07:09:00.733Z,5.8
2023-02-01T07:10:00.379Z,5.8
2023-02-01T07:11:00.913Z,5.8
2023-02-01T07:12:00.554Z,5.8
2023-02-01T07:13:00.097Z,5.7
2023-02-01T07:14:00.687Z,5.8
2023-02-01T07:15:00.294Z,5.8
2023-02-01T07:16:00.915Z,5.8
2023-02-01T07:17:00.512Z,5.8
2023-02-01T07:18:00.113Z,5.8
2023-02-01T07:19:00.694Z,5.8
2023-02-01T07:20:00.295Z,5.8
2023-02-01T07:21:00.884Z,5.8
2023-02-01T07:22:00.480Z,5.8
2023-02-01T07:23:00.102Z,5.8
2023-02-01T07:24:00.628Z,5.8
2023-02-01T07:25:00.222Z,5.8
2023-02-01T07:26:00.808Z,5.8
2023-02-01T07:27:00.399Z,5.8
2023-02-01T07:28:01.034Z,5.8
2023-02-01T07:29:00.622Z,5.8
2023-02-01T07:30:00.201Z,5.8
2023-02-01T07:31:00.790Z,5.8
2023-02-01T07:32:00.398Z,5.9
2023-02-01T07:33:00.997Z,5.9
2023-02-01T07:34:00.582Z,5.8
2023-02-01T07:35:00.198Z,5.8
2023-02-01T07:36:00.780Z,5.8
2023-02-01T07:37:00.392Z,5.9
2023-02-01T07:38:00.958Z,5.9
2023-02-01T07:39:00.550Z,5.9
2023-02-01T07:40:00.160Z,5.9
2023-02-01T07:41:00.724Z,5.9
2023-02-01T07:42:00.322Z,5.8
2023-02-01T07:43:00.904Z,5.9
2023-02-01T07:44:00.514Z,5.9
2023-02-01T07:45:11.150Z,5.9
2023-02-01T07:46:00.681Z,5.9
2023-02-01T07:47:00.282Z,5.9
2023-02-01T07:48:00.852Z,5.9
2023-02-01T07:49:00.460Z,5.8
2023-02-01T07:50:00.013Z,5.9
2023-02-01T07:51:00.599Z,5.9
2023-02-01T07:52:00.200Z,5.9
2023-02-01T07:53:00.754Z,5.8
2023-02-01T07:54:00.361Z,5.9
2023-02-01T07:55:00.923Z,5.9
2023-02-01T07:56:00.539Z,5.8
2023-02-01T07:57:00.113Z,5.9
2023-02-01T07:58:00.678Z,5.9
2023-02-01T07:59:00.264Z,5.8
2023-02-01T08:00:00.870Z,5.8
2023-02-01T08:01:00.534Z,5.9
2023-02-01T08:02:00.050Z,5.9
2023-02-01T08:03:00.634Z,5.8
2023-02-01T08:04:00.248Z,5.8
2023-02-01T08:05:00.818Z,5.8
2023-02-01T08:06:00.444Z,5.8
2023-02-01T08:07:01.002Z,5.8
2023-02-01T08:08:00.615Z,5.8
2023-02-01T08:09:00.206Z,5.8
2023-02-01T08:10:00.820Z,5.8
2023-02-01T08:11:00.403Z,5.8
2023-02-01T08:12:00.975Z,5.8
2023-02-01T08:13:00.581Z,5.8
2023-02-01T08:14:00.177Z,5.9
2023-02-01T08:15:00.763Z,5.8
2023-02-01T08:16:00.392Z,5.8
2023-02-01T08:17:00.929Z,5.8
2023-02-01T08:18:00.571Z,5.9
2023-02-01T08:19:00.182Z,5.9
2023-02-01T08:20:00.746Z,5.9
2023-02-01T08:21:00.337Z,5.8
2023-02-01T08:22:00.905Z,5.8
2023-02-01T08:23:00.501Z,5.8
2023-02-01T08:24:00.140Z,5.9
2023-02-01T08:25:00.655Z,5.9
2023-02-01T08:26:00.246Z,5.8
2023-02-01T08:27:00.831Z,5.8
2023-02-01T08:28:00.426Z,5.9
2023-02-01T08:29:01.020Z,5.9
2023-02-01T08:30:00.611Z,5.9
2023-02-01T08:31:00.249Z,5.9
2023-02-01T08:32:00.861Z,5.8
2023-02-01T08:33:00.443Z,5.9
2023-02-01T08:34:00.037Z,5.9
2023-02-01T08:35:00.603Z,5.9
2023-02-01T08:36:00.194Z,6
2023-02-01T08:37:00.774Z,6
2023-02-01T08:38:00.366Z,6
2023-02-01T08:39:00.961Z,6
2023-02-01T08:40:00.549Z,6
2023-02-01T08:41:00.136Z,6
2023-02-01T08:42:00.725Z,6
2023-02-01T08:43:00.315Z,6
2023-02-01T08:44:00.919Z,6
2023-02-01T08:45:00.504Z,5.9
2023-02-01T08:46:00.169Z,6
2023-02-01T08:47:00.669Z,6.1
2023-02-01T08:48:00.299Z,6
2023-02-01T08:49:00.874Z,6
2023-02-01T08:50:00.499Z,6
2023-02-01T08:51:00.057Z,6
2023-02-01T08:52:03.875Z,6.1
2023-02-01T08:53:00.176Z,6.1
2023-02-01T08:54:00.773Z,6.1
2023-02-01T08:55:00.413Z,6.1
2023-02-01T08:56:00.939Z,6.2
2023-02-01T08:57:00.577Z,6.2
2023-02-01T08:58:00.171Z,6.2
2023-02-01T08:59:00.742Z,6.2
2023-02-01T09:00:00.327Z,6.2
2023-02-01T09:01:00.960Z,6.2
2023-02-01T09:02:00.548Z,6.3
2023-02-01T09:03:00.134Z,6.2
2023-02-01T09:04:00.790Z,6.2
2023-02-01T09:05:00.367Z,6.2
2023-02-01T09:06:00.988Z,6.1
2023-02-01T09:07:00.580Z,6.1
2023-02-01T09:08:00.169Z,6.1
2023-02-01T09:09:00.748Z,6.1
2023-02-01T09:10:00.330Z,6.1
2023-02-01T09:11:03.049Z,6.2
2023-02-01T09:12:00.546Z,6.2
2023-02-01T09:13:00.130Z,6.2
2023-02-01T09:14:00.702Z,6.3
2023-02-01T09:15:00.593Z,6.3
2023-02-01T09:16:01.158Z,6.3
2023-02-01T09:17:00.546Z,6.3
2023-02-01T09:18:00.126Z,6.2
2023-02-01T09:19:22.015Z,6.2
2023-02-01T09:20:00.258Z,6.3
2023-02-01T09:21:00.853Z,6.2
2023-02-01T09:22:00.464Z,6.3
2023-02-01T09:23:00.010Z,6.2
2023-02-01T09:24:00.595Z,6.2
2023-02-01T09:25:00.224Z,6.2
2023-02-01T09:26:00.773Z,6.2
2023-02-01T09:27:00.433Z,6.2
2023-02-01T09:28:00.972Z,6.2
2023-02-01T09:29:00.561Z,6.2
2023-02-01T09:30:00.191Z,6.2
2023-02-01T09:31:00.830Z,6.2
2023-02-01T09:32:03.832Z,6.2
2023-02-01T09:33:00.939Z,6.2
2023-02-01T09:34:00.545Z,6.1
2023-02-01T09:35:00.153Z,6.2
2023-02-01T09:36:00.727Z,6.2
2023-02-01T09:37:00.326Z,6.2
2023-02-01T09:38:00.917Z,6.3
2023-02-01T09:39:00.530Z,6.3
2023-02-01T09:40:00.130Z,6.3
2023-02-01T09:41:00.706Z,6.3
2023-02-01T09:42:00.326Z,6.3
2023-02-01T09:43:00.918Z,6.3
2023-02-01T09:44:00.522Z,6.3
2023-02-01T09:45:00.105Z,6.5
2023-02-01T09:46:00.705Z,6.5
2023-02-01T09:47:00.312Z,6.4
2023-02-01T09:48:00.899Z,6.3
2023-02-01T09:49:00.517Z,6.4
2023-02-01T09:50:00.110Z,6.4
2023-02-01T09:51:00.675Z,6.4
2023-02-01T09:52:00.291Z,6.3
2023-02-01T09:53:00.844Z,6.3
2023-02-01T09:54:00.456Z,6.3
2023-02-01T09:55:00.018Z,6.3
2023-02-01T09:56:00.606Z,6.3
2023-02-01T09:57:00.205Z,6.4
2023-02-01T09:58:00.781Z,6.4
2023-02-01T09:59:00.382Z,6.3
2023-02-01T10:00:00.957Z,6.3
2023-02-01T10:01:00.543Z,6.3
2023-02-01T10:02:00.126Z,6.3
2023-02-01T10:03:00.704Z,6.2
2023-02-01T10:04:00.321Z,6.3
2023-02-01T10:05:00.907Z,6.3
2023-02-01T10:06:00.506Z,6.2
2023-02-01T10:07:00.116Z,6.2
2023-02-01T10:08:00.749Z,6.2
2023-02-01T10:09:00.325Z,6.2
2023-02-01T10:10:00.910Z,6.3
2023-02-01T10:11:00.507Z,6.3
2023-02-01T10:12:00.133Z,6.4
2023-02-01T10:13:00.665Z,6.4
2023-02-01T10:14:00.248Z,6.4
2023-02-01T10:15:00.870Z,6.4
2023-02-01T10:16:00.567Z,6.4
2023-02-01T10:17:00.068Z,6.5
2023-02-01T10:18:00.614Z,6.5
2023-02-01T10:19:00.222Z,6.5
2023-02-01T10:20:00.816Z,6.6
2023-02-01T10:21:00.404Z,6.5
2023-02-01T10:22:00.989Z,6.6
2023-02-01T10:23:19.380Z,6.6
2023-02-01T10:24:03.474Z,6.6
2023-02-01T10:25:00.682Z,6.5
2023-02-01T10:26:00.277Z,6.6
2023-02-01T10:27:00.852Z,6.5
2023-02-01T10:28:00.442Z,6.5
2023-02-01T10:29:00.032Z,6.5
2023-02-01T10:30:00.658Z,6.5
2023-02-01T10:31:00.445Z,6.6
2023-02-01T10:32:00.903Z,6.6
2023-02-01T10:33:00.523Z,6.5
2023-02-01T10:34:00.117Z,6.4
2023-02-01T10:35:00.669Z,6.5
2023-02-01T10:36:00.278Z,6.6
2023-02-01T10:37:00.843Z,6.6
2023-02-01T10:38:00.432Z,6.6
2023-02-01T10:39:01.001Z,6.6
2023-02-01T10:40:00.627Z,6.5
2023-02-01T10:41:00.243Z,6.5
2023-02-01T10:42:00.811Z,6.5
2023-02-01T10:43:00.410Z,6.6
2023-02-01T10:44:00.976Z,6.5
2023-02-01T10:45:00.571Z,6.5
2023-02-01T10:46:00.254Z,6.6
2023-02-01T10:47:00.728Z,6.6
2023-02-01T10:48:00.318Z,6.6
2023-02-01T10:49:00.906Z,6.6
2023-02-01T10:50:00.499Z,6.5
2023-02-01T10:51:00.107Z,6.5
2023-02-01T10:52:00.668Z,6.4
2023-02-01T10:53:00.262Z,6.5
2023-02-01T10:54:00.834Z,6.5
2023-02-01T10:55:00.432Z,6.5
2023-02-01T10:56:01.052Z,6.5
2023-02-01T10:57:01.537Z,6.6
2023-02-01T10:58:00.191Z,6.6
2023-02-01T10:59:00.790Z,6.7
2023-02-01T11:00:00.374Z,6.7
2023-02-01T11:01:00.957Z,6.6
2023-02-01T11:02:00.857Z,6.7
2023-02-01T11:03:00.266Z,6.7
2023-02-01T11:04:00.756Z,6.7
2023-02-01T11:05:00.350Z,6.6
2023-02-01T11:06:00.930Z,6.6
2023-02-01T11:07:00.518Z,6.6
2023-02-01T11:08:00.132Z,6.6
2023-02-01T11:09:00.677Z,6.6
2023-02-01T11:10:00.264Z,6.6
2023-02-01T11:11:00.836Z,6.5
2023-02-01T11:12:00.506Z,6.6
2023-02-01T11:13:00.037Z,6.5
2023-02-01T11:14:00.600Z,6.5
2023-02-01T11:15:00.191Z,6.6
2023-02-01T11:16:00.848Z,6.7
2023-02-01T11:17:00.421Z,6.7
2023-02-01T11:18:00.039Z,6.7
2023-02-01T11:19:00.615Z,6.7
2023-02-01T11:20:00.214Z,6.7
2023-02-01T11:21:00.799Z,6.8
2023-02-01T11:22:00.419Z,6.8
2023-02-01T11:23:01.005Z,6.7
2023-02-01T11:24:00.613Z,6.8
2023-02-01T11:25:00.215Z,6.7
2023-02-01T11:26:00.769Z,6.7
2023-02-01T11:27:00.365Z,6.8
2023-02-01T11:28:00.984Z,6.8
2023-02-01T11:29:00.596Z,6.8
2023-02-01T11:30:00.213Z,6.8
2023-02-01T11:31:00.857Z,6.9
2023-02-01T11:32:00.398Z,6.9
2023-02-01T11:33:00.979Z,6.9
2023-02-01T11:34:00.599Z,6.9
2023-02-01T11:35:00.187Z,6.9
2023-02-01T11:36:00.761Z,6.9
2023-02-01T11:37:00.357Z,6.9
2023-02-01T11:38:00.940Z,7
2023-02-01T11:39:00.555Z,7
2023-02-01T11:40:00.175Z,6.9
2023-02-01T11:41:00.730Z,6.9
2023-02-01T11:42:00.321Z,6.9
2023-02-01T11:43:00.905Z,7
2023-02-01T11:44:00.535Z,6.9
2023-02-01T11:45:00.095Z,7
2023-02-01T11:46:00.686Z,6.8
2023-02-01T11:47:00.294Z,6.8
2023-02-01T11:48:00.876Z,6.8
2023-02-01T11:49:00.484Z,6.9
2023-02-01T11:50:00.058Z,6.8
2023-02-01T11:51:00.661Z,6.8
2023-02-01T11:52:00.254Z,6.9
2023-02-01T11:53:00.882Z,6.8
2023-02-01T11:54:00.499Z,6.8
2023-02-01T11:55:00.110Z,6.8
2023-02-01T11:56:00.687Z,6.7
2023-02-01T11:57:00.291Z,6.7
2023-02-01T11:58:00.864Z,6.7
2023-02-01T11:59:00.456Z,6.7
2023-02-01T12:00:00.074Z,6.6
2023-02-01T12:01:00.636Z,6.5
2023-02-01T12:02:00.293Z,6.4
2023-02-01T12:03:00.827Z,6.4
2023-02-01T12:04:00.466Z,6.4
2023-02-01T12:05:00.051Z,6.3
2023-02-01T12:06:00.621Z,6.3
2023-02-01T12:07:00.235Z,6.3
2023-02-01T12:08:00.797Z,6.3
2023-02-01T12:09:00.391Z,6.2
2023-02-01T12:10:00.976Z,6.1
2023-02-01T12:11:00.585Z,6.1
2023-02-01T12:12:00.182Z,6.1
2023-02-01T12:13:00.806Z,6.1
2023-02-01T12:14:00.399Z,6.1
2023-02-01T12:15:00.982Z,6
2023-02-01T12:16:00.645Z,6
2023-02-01T12:17:00.230Z,6.1
2023-02-01T12:18:00.846Z,6
2023-02-01T12:19:00.463Z,6
2023-02-01T12:20:00.064Z,6
2023-02-01T12:21:00.628Z,6
2023-02-01T12:22:00.237Z,6
2023-02-01T12:23:00.802Z,6
2023-02-01T12:24:00.399Z,6.1
2023-02-01T12:25:00.983Z,6.1
2023-02-01T12:26:00.574Z,6.1
2023-02-01T12:27:00.257Z,6.1
2023-02-01T12:28:00.755Z,6.2
2023-02-01T12:29:00.363Z,6.1
2023-02-01T12:30:00.925Z,6.1
2023-02-01T12:31:00.559Z,6.1
2023-02-01T12:32:00.216Z,6.3
2023-02-01T12:33:00.746Z,6.2
2023-02-01T12:34:00.332Z,6.3
2023-02-01T12:35:00.921Z,6.3
2023-02-01T12:36:00.510Z,6.3
2023-02-01T12:37:00.114Z,6.3
2023-02-01T12:38:00.723Z,6.4
2023-02-01T12:39:00.317Z,6.4
2023-02-01T12:40:00.903Z,6.4
2023-02-01T12:41:00.514Z,6.5
2023-02-01T12:42:00.098Z,6.6
2023-02-01T12:43:00.655Z,6.7
2023-02-01T12:44:00.256Z,6.7
2023-02-01T12:45:00.853Z,6.7
2023-02-01T12:46:00.525Z,6.6
2023-02-01T12:47:00.047Z,6.6
2023-02-01T12:48:00.657Z,6.6
2023-02-01T12:49:00.268Z,6.6
2023-02-01T12:50:00.818Z,6.5
2023-02-01T12:51:00.440Z,6.6
2023-02-01T12:52:00.986Z,6.5
2023-02-01T12:53:00.587Z,6.6
2023-02-01T12:54:00.197Z,6.5
2023-02-01T12:55:00.764Z,6.6
2023-02-01T12:56:00.355Z,6.6
2023-02-01T12:57:00.927Z,6.6
2023-02-01T12:58:00.516Z,6.6
2023-02-01T12:59:00.127Z,6.6
2023-02-01T13:00:00.679Z,6.7
2023-02-01T13:01:00.301Z,6.7
2023-02-01T13:02:00.875Z,6.7
2023-02-01T13:03:00.492Z,6.7
2023-02-01T13:04:00.125Z,6.7
2023-02-01T13:05:00.662Z,6.7
2023-02-01T13:06:00.250Z,6.6
2023-02-01T13:07:00.838Z,6.6
2023-02-01T13:08:00.425Z,6.5
2023-02-01T13:09:00.029Z,6.6
2023-02-01T13:10:00.583Z,6.5
2023-02-01T13:11:00.171Z,6.5
2023-02-01T13:12:00.762Z,6.6
2023-02-01T13:13:00.354Z,6.5
2023-02-01T13:14:00.192Z,6.6
2023-02-01T13:15:00.537Z,6.6
2023-02-01T13:16:00.125Z,6.7
2023-02-01T13:17:00.793Z,6.7
2023-02-01T13:18:00.370Z,6.7
2023-02-01T13:19:00.958Z,6.8
2023-02-01T13:20:00.604Z,6.8
2023-02-01T13:21:00.197Z,6.8
2023-02-01T13:22:00.780Z,6.8
2023-02-01T13:23:00.378Z,6.8
2023-02-01T13:24:00.961Z,6.9
2023-02-01T13:25:00.633Z,6.9
2023-02-01T13:26:00.179Z,7
2023-02-01T13:27:00.769Z,7
2023-02-01T13:28:00.370Z,6.9
2023-02-01T13:29:00.955Z,7.1
2023-02-01T13:30:00.727Z,6.9
2023-02-01T13:31:00.258Z,7
2023-02-01T13:32:00.744Z,7
2023-02-01T13:33:51.943Z,7
2023-02-01T13:34:00.885Z,7.1
2023-02-01T13:35:00.651Z,7.1
2023-02-01T13:36:00.206Z,7.1
2023-02-01T13:37:00.757Z,7.1
2023-02-01T13:38:00.346Z,7.1
2023-02-01T13:39:00.934Z,7.1
2023-02-01T13:40:00.529Z,7.1
2023-02-01T13:41:00.139Z,7
2023-02-01T13:42:00.695Z,7
2023-02-01T13:43:00.285Z,7
2023-02-01T13:44:00.868Z,7
2023-02-01T13:45:00.468Z,7.1
2023-02-01T13:46:00.129Z,7
2023-02-01T13:47:00.614Z,7
2023-02-01T13:48:00.205Z,7
2023-02-01T13:49:00.827Z,7.1